createdAt,value
2018-08-23T00:00:47.333Z,101446.66
2018-08-23T00:03:20.846Z,101447.67
2018-08-23T00:05:51.981Z,101448.52
2018-08-23T00:08:20.596Z,101442.05
2018-08-23T00:10:49.566Z,101444.20
2018-08-23T00:13:18.343Z,101444.38
2018-08-23T00:15:46.630Z,101439.39
2018-08-23T00:18:15.173Z,101433.92
2018-08-23T00:20:43.529Z,101434.11
2018-08-23T00:23:11.990Z,101434.75
2018-08-23T00:25:40.365Z,101428.97
2018-08-23T00:28:09.016Z,101431.44
2018-08-23T00:30:37.628Z,101430.10
2018-08-23T00:33:06.489Z,101425.11
2018-08-23T00:35:36.506Z,101422.14
2018-08-23T00:38:06.130Z,101422.79
2018-08-23T00:40:40.011Z,101419.30
2018-08-23T00:43:09.572Z,101415.81
2018-08-23T00:45:37.859Z,101416.31
2018-08-23T00:48:06.297Z,101415.52
2018-08-23T00:51:05.072Z,101415.19
2018-08-23T00:53:34.697Z,101411.56
2018-08-23T00:56:15.509Z,101409.55
2018-08-23T00:58:49.682Z,101409.24
2018-08-23T01:01:17.960Z,101409.24
2018-08-23T01:03:46.349Z,101409.56
2018-08-23T01:06:18.787Z,101407.90
2018-08-23T01:08:47.108Z,101402.94
2018-08-23T01:11:15.400Z,101400.94
2018-08-23T01:13:43.779Z,101400.94
2018-08-23T01:16:12.761Z,101396.64
2018-08-23T01:18:41.577Z,101396.14
2018-08-23T01:21:10.529Z,101400.26
2018-08-23T01:23:39.382Z,101396.63
2018-08-23T01:26:08.807Z,101397.62
2018-08-23T01:28:37.137Z,101403.45
2018-08-23T01:31:22.873Z,101401.97
2018-08-23T01:33:55.010Z,101395.33
2018-08-23T01:36:27.488Z,101393.66
2018-08-23T01:38:55.839Z,101390.34
2018-08-23T01:41:24.153Z,101383.38
2018-08-23T01:43:52.430Z,101387.36
2018-08-23T01:46:26.277Z,101381.05
2018-08-23T01:48:54.561Z,101382.72
2018-08-23T01:51:22.873Z,101374.25
2018-08-23T01:53:51.617Z,101372.09
2018-08-23T01:56:20.417Z,101365.78
2018-08-23T01:58:48.694Z,101359.64
2018-08-23T02:01:18.265Z,101370.11
2018-08-23T02:03:46.719Z,101367.81
2018-08-23T02:06:15.933Z,101358.65
2018-08-23T02:08:45.668Z,101362.50
2018-08-23T02:11:14.677Z,101359.32
2018-08-23T02:13:44.003Z,101357.84
2018-08-23T02:16:12.278Z,101358.48
2018-08-23T02:18:40.575Z,101356.17
2018-08-23T02:21:10.281Z,101351.89
2018-08-23T02:23:45.417Z,101351.20
2018-08-23T02:26:14.307Z,101347.06
2018-08-23T02:28:48.817Z,101345.25
2018-08-23T02:31:17.617Z,101343.77
2018-08-23T02:33:45.933Z,101340.94
2018-08-23T02:36:17.590Z,101339.61
2018-08-23T02:38:48.395Z,101343.59
2018-08-23T02:41:17.382Z,101339.56
2018-08-23T02:43:46.193Z,101344.38
2018-08-23T02:46:14.541Z,101346.55
2018-08-23T02:48:42.921Z,101339.91
2018-08-23T02:51:11.198Z,101344.88
2018-08-23T02:53:40.771Z,101338.91
2018-08-23T02:56:12.965Z,101336.91
2018-08-23T02:59:01.814Z,101332.95
2018-08-23T03:01:33.319Z,101339.75
2018-08-23T03:04:13.584Z,101333.77
2018-08-23T03:06:56.196Z,101338.58
2018-08-23T03:09:27.417Z,101335.77
2018-08-23T03:11:57.757Z,101335.27
2018-08-23T03:14:26.938Z,101332.13
2018-08-23T03:17:20.713Z,101338.06
2018-08-23T03:20:06.301Z,101333.25
2018-08-23T03:22:35.164Z,101337.24
2018-08-23T03:25:04.708Z,101333.27
2018-08-23T03:27:33.254Z,101332.26
2018-08-23T03:30:02.590Z,101336.60
2018-08-23T03:32:31.146Z,101337.10
2018-08-23T03:34:59.968Z,101337.25
2018-08-23T03:37:28.408Z,101335.09
2018-08-23T03:39:57.164Z,101335.63
2018-08-23T03:42:25.886Z,101329.31
2018-08-23T03:44:55.208Z,101332.30
2018-08-23T03:47:23.974Z,101332.61
2018-08-23T03:49:52.504Z,101327.95
2018-08-23T03:52:22.478Z,101329.00
2018-08-23T03:54:57.036Z,101333.94
2018-08-23T03:57:30.709Z,101327.98
2018-08-23T03:59:59.296Z,101330.11
2018-08-23T04:02:27.774Z,101324.63
2018-08-23T04:05:04.923Z,101328.59
2018-08-23T04:07:33.229Z,101315.61
2018-08-23T04:10:01.569Z,101321.40
2018-08-23T04:12:29.860Z,101320.27
2018-08-23T04:15:13.717Z,101320.98
2018-08-23T04:17:43.253Z,101321.63
2018-08-23T04:20:11.559Z,101320.17
2018-08-23T04:22:40.087Z,101321.00
2018-08-23T04:25:08.364Z,101316.88
2018-08-23T04:27:36.869Z,101315.05
2018-08-23T04:30:06.309Z,101310.67
2018-08-23T04:32:39.913Z,101307.31
2018-08-23T04:35:12.445Z,101311.30
2018-08-23T04:37:40.950Z,101314.08
2018-08-23T04:40:09.990Z,101308.37
2018-08-23T04:42:38.293Z,101309.70
2018-08-23T04:45:09.600Z,101309.70
2018-08-23T04:47:48.309Z,101313.19
2018-08-23T04:50:16.599Z,101312.17
2018-08-23T04:52:44.993Z,101307.50
2018-08-23T04:55:13.413Z,101305.13
2018-08-23T04:57:41.713Z,101304.67
2018-08-23T05:00:10.005Z,101307.22
2018-08-23T05:02:39.377Z,101299.97
2018-08-23T05:05:07.673Z,101302.69
2018-08-23T05:07:36.130Z,101296.07
2018-08-23T05:10:04.855Z,101296.12
2018-08-23T05:12:33.681Z,101296.02
2018-08-23T05:15:02.027Z,101295.16
2018-08-23T05:17:30.333Z,101292.06
2018-08-23T05:19:58.653Z,101292.80
2018-08-23T05:22:26.931Z,101283.59
2018-08-23T05:25:00.298Z,101289.67
2018-08-23T05:27:28.601Z,101289.18
2018-08-23T05:29:56.984Z,101283.44
2018-08-23T05:32:25.182Z,101282.44
2018-08-23T05:34:53.553Z,101286.23
2018-08-23T05:37:21.871Z,101292.01
2018-08-23T05:39:52.470Z,101292.79
2018-08-23T05:42:33.184Z,101293.95
2018-08-23T05:45:01.483Z,101288.52
2018-08-23T05:47:30.780Z,101286.73
2018-08-23T05:49:59.079Z,101287.33
2018-08-23T05:52:27.453Z,101292.45
2018-08-23T05:54:56.529Z,101284.87
2018-08-23T05:57:24.796Z,101292.23
2018-08-23T05:59:54.859Z,101291.89
2018-08-23T06:02:23.126Z,101294.49
2018-08-23T06:04:51.429Z,101290.60
2018-08-23T06:07:20.793Z,101294.73
2018-08-23T06:09:49.092Z,101301.39
2018-08-23T06:12:17.401Z,101298.57
2018-08-23T06:14:45.761Z,101293.70
2018-08-23T06:17:14.033Z,101291.00
2018-08-23T06:19:42.307Z,101293.56
2018-08-23T06:22:10.610Z,101281.66
2018-08-23T06:24:38.885Z,101289.59
2018-08-23T06:27:08.262Z,101281.89
2018-08-23T06:29:36.529Z,101276.06
2018-08-23T06:32:08.045Z,101276.92
2018-08-23T06:34:38.005Z,101277.44
2018-08-23T06:37:06.325Z,101278.95
2018-08-23T06:39:34.593Z,101278.92
2018-08-23T06:42:03.625Z,101265.75
2018-08-23T06:44:40.875Z,101260.80
2018-08-23T06:47:10.993Z,101265.03
2018-08-23T06:49:39.441Z,101268.69
2018-08-23T06:52:11.010Z,101274.18
2018-08-23T06:54:39.809Z,101269.38
2018-08-23T06:57:08.378Z,101265.34
2018-08-23T06:59:37.188Z,101261.30
2018-08-23T07:02:05.501Z,101261.71
2018-08-23T07:04:34.312Z,101259.59
2018-08-23T07:07:02.626Z,101260.37
2018-08-23T07:09:34.817Z,101253.59
2018-08-23T07:12:08.394Z,101247.09
2018-08-23T07:14:36.742Z,101246.53
2018-08-23T07:17:16.976Z,101245.71
2018-08-23T07:19:45.816Z,101242.48
2018-08-23T07:22:18.245Z,101239.39
2018-08-23T07:24:47.703Z,101244.38
2018-08-23T07:27:17.174Z,101251.20
2018-08-23T07:29:47.762Z,101248.45
2018-08-23T07:32:17.919Z,101251.82
2018-08-23T07:35:01.710Z,101247.03
2018-08-23T07:37:30.856Z,101249.69
2018-08-23T07:40:04.599Z,101252.84
2018-08-23T07:42:33.671Z,101253.77
2018-08-23T07:45:02.275Z,101252.58
2018-08-23T07:47:31.145Z,101254.45
2018-08-23T07:50:00.637Z,101251.30
2018-08-23T07:52:30.212Z,101253.00
2018-08-23T07:54:58.497Z,101248.88
2018-08-23T07:57:30.674Z,101242.56
2018-08-23T08:00:01.253Z,101246.26
2018-08-23T08:02:30.110Z,101242.94
2018-08-23T08:04:58.999Z,101242.53
2018-08-23T08:07:31.901Z,101239.12
2018-08-23T08:10:01.893Z,101239.20
2018-08-23T08:12:38.885Z,101235.73
2018-08-23T08:15:11.619Z,101235.56
2018-08-23T08:17:39.946Z,101240.14
2018-08-23T08:20:10.841Z,101239.82
2018-08-23T08:22:39.477Z,101239.51
2018-08-23T08:25:13.497Z,101244.96
2018-08-23T08:27:41.816Z,101245.22
2018-08-23T08:30:12.060Z,101246.88
2018-08-23T08:32:40.401Z,101250.19
2018-08-23T08:35:16.093Z,101246.18
2018-08-23T08:37:45.444Z,101249.88
2018-08-23T08:40:14.929Z,101249.69
2018-08-23T08:42:43.500Z,101237.23
2018-08-23T08:45:12.978Z,101246.14
2018-08-23T08:47:42.686Z,101247.63
2018-08-23T08:50:11.037Z,101246.73
2018-08-23T08:52:39.436Z,101244.02
2018-08-23T08:55:10.933Z,101241.98
2018-08-23T08:57:40.903Z,101236.58
2018-08-23T09:00:09.594Z,101234.94
2018-08-23T09:02:37.997Z,101234.31
2018-08-23T09:05:06.493Z,101233.64
2018-08-23T09:07:35.793Z,101227.44
2018-08-23T09:10:04.652Z,101224.44
2018-08-23T09:12:33.501Z,101227.86
2018-08-23T09:15:01.784Z,101213.86
2018-08-23T09:17:42.518Z,101210.55
2018-08-23T09:20:12.805Z,101211.33
2018-08-23T09:22:47.208Z,101202.48
2018-08-23T09:25:22.314Z,101197.38
2018-08-23T09:27:51.094Z,101195.09
2018-08-23T09:30:24.633Z,101192.23
2018-08-23T09:32:53.045Z,101192.64
2018-08-23T09:35:24.709Z,101178.12
2018-08-23T09:37:56.759Z,101179.96
2018-08-23T09:40:25.441Z,101180.58
2018-08-23T09:42:53.743Z,101179.04
2018-08-23T09:45:22.021Z,101168.12
2018-08-23T09:47:50.325Z,101169.66
2018-08-23T09:50:18.759Z,101165.23
2018-08-23T09:52:49.062Z,101155.92
2018-08-23T09:55:18.538Z,101161.75
2018-08-23T09:57:47.260Z,101157.31
2018-08-23T10:00:19.764Z,101152.17
2018-08-23T10:02:53.338Z,101147.34
2018-08-23T10:05:26.913Z,101139.36
2018-08-23T10:08:00.504Z,101150.32
2018-08-23T10:10:34.098Z,101144.25
2018-08-23T10:14:11.707Z,101141.16
2018-08-23T10:16:45.165Z,101133.92
2018-08-23T10:19:18.746Z,101139.19
2018-08-23T10:21:52.383Z,101134.69
2018-08-23T10:24:24.609Z,101129.23
2018-08-23T10:26:53.494Z,101128.17
2018-08-23T10:29:21.769Z,101122.51
2018-08-23T10:31:50.137Z,101116.75
2018-08-23T10:34:18.477Z,101117.61
2018-08-23T10:36:46.775Z,101112.20
2018-08-23T10:39:15.048Z,101111.89
2018-08-23T10:41:43.345Z,101106.50
2018-08-23T10:44:11.725Z,101102.14
2018-08-23T10:46:45.426Z,101117.97
2018-08-23T10:49:13.697Z,101115.80
2018-08-23T10:51:42.023Z,101100.78
2018-08-23T10:54:10.289Z,101100.20
2018-08-23T10:56:38.589Z,101103.59
2018-08-23T10:59:07.093Z,101107.25
2018-08-23T11:01:35.285Z,101105.29
2018-08-23T11:04:07.465Z,101089.14
2018-08-23T11:06:37.011Z,101096.78
2018-08-23T11:09:12.245Z,101088.66
2018-08-23T11:11:40.550Z,101087.50
2018-08-23T11:14:14.244Z,101104.20
2018-08-23T11:16:47.769Z,101088.44
2018-08-23T11:19:21.325Z,101091.75
2018-08-23T11:21:50.677Z,101091.59
2018-08-23T11:24:18.949Z,101081.40
2018-08-23T11:26:47.261Z,101077.17
2018-08-23T11:29:16.253Z,101077.50
2018-08-23T11:31:44.704Z,101073.41
2018-08-23T11:34:12.991Z,101074.70
2018-08-23T11:36:41.346Z,101075.89
2018-08-23T11:39:09.661Z,101073.36
2018-08-23T11:41:37.932Z,101061.97
2018-08-23T11:44:06.290Z,101061.98
2018-08-23T11:46:34.583Z,101072.13
2018-08-23T11:49:02.929Z,101057.29
2018-08-23T11:51:31.201Z,101064.43
2018-08-23T11:53:59.635Z,101066.54
2018-08-23T11:56:27.817Z,101064.50
2018-08-23T11:58:56.246Z,101056.30
2018-08-23T12:01:24.598Z,101060.82
2018-08-23T12:03:53.079Z,101069.34
2018-08-23T12:06:21.363Z,101054.66
2018-08-23T12:08:49.757Z,101055.56
2018-08-23T12:11:18.749Z,101054.86
2018-08-23T12:13:50.037Z,101056.77
2018-08-23T12:16:18.517Z,101056.33
2018-08-23T12:18:46.893Z,101055.48
2018-08-23T12:21:15.194Z,101043.20
2018-08-23T12:23:43.457Z,101046.31
2018-08-23T12:26:11.833Z,101041.23
2018-08-23T12:28:45.558Z,101036.85
2018-08-23T12:31:13.862Z,101036.19
2018-08-23T12:33:42.221Z,101041.10
2018-08-23T12:36:10.773Z,101029.61
2018-08-23T12:38:44.266Z,101032.95
2018-08-23T12:41:17.993Z,101024.36
2018-08-23T12:43:49.436Z,101022.23
2018-08-23T12:46:18.826Z,101027.52
2018-08-23T12:48:47.487Z,101031.73
2018-08-23T12:51:15.773Z,101022.45
2018-08-23T12:53:44.056Z,101024.33
2018-08-23T12:56:12.408Z,101024.69
2018-08-23T12:58:40.660Z,101016.45
2018-08-23T13:01:08.993Z,101026.80
2018-08-23T13:03:37.364Z,101017.77
2018-08-23T13:06:05.729Z,101020.16
2018-08-23T13:08:34.059Z,101015.52
2018-08-23T13:11:02.569Z,101017.05
2018-08-23T13:13:30.873Z,101020.85
2018-08-23T13:15:59.194Z,101019.77
2018-08-23T13:18:27.574Z,101026.76
2018-08-23T13:20:55.869Z,101007.92
2018-08-23T13:23:24.184Z,101005.02
2018-08-23T13:25:58.552Z,101014.86
2018-08-23T13:28:27.806Z,101012.53
2018-08-23T13:30:56.150Z,101008.59
2018-08-23T13:33:25.505Z,100989.95
2018-08-23T13:35:53.816Z,101010.48
2018-08-23T13:38:22.110Z,100990.73
2018-08-23T13:40:50.489Z,100988.48
2018-08-23T13:43:18.842Z,100991.78
2018-08-23T13:45:47.241Z,100983.34
2018-08-23T13:48:15.589Z,100984.09
2018-08-23T13:50:43.841Z,100988.84
2018-08-23T13:53:12.124Z,100980.22
2018-08-23T13:55:40.644Z,100990.61
2018-08-23T13:58:08.936Z,100981.12
2018-08-23T14:00:38.989Z,100993.77
2018-08-23T14:03:07.925Z,100982.66
2018-08-23T14:05:36.453Z,100983.56
2018-08-23T14:08:04.713Z,100982.23
2018-08-23T14:10:33.173Z,100970.22
2018-08-23T14:13:01.479Z,100980.55
2018-08-23T14:15:34.926Z,100984.27
2018-08-23T14:18:03.245Z,100987.54
2018-08-23T14:20:31.689Z,100982.86
2018-08-23T14:23:00.026Z,100972.44
2018-08-23T14:25:28.542Z,100966.14
2018-08-23T14:27:57.029Z,100984.30
2018-08-23T14:30:25.444Z,100974.49
2018-08-23T14:32:53.793Z,100975.09
2018-08-23T14:35:22.057Z,100971.48
2018-08-23T14:37:50.481Z,100972.94
2018-08-23T14:40:18.816Z,100959.27
2018-08-23T14:42:47.139Z,100958.56
2018-08-23T14:45:19.602Z,100955.05
2018-08-23T14:47:53.194Z,100964.31
2018-08-23T14:50:21.554Z,100967.45
2018-08-23T14:52:49.842Z,100973.47
2018-08-23T14:55:23.457Z,100967.72
2018-08-23T14:57:51.793Z,100970.14
2018-08-23T15:00:20.086Z,100987.09
2018-08-23T15:02:48.541Z,100983.70
2018-08-23T15:05:16.821Z,100971.88
2018-08-23T15:07:45.201Z,100957.61
2018-08-23T15:10:13.413Z,100966.19
2018-08-23T15:12:41.689Z,100968.84
2018-08-23T15:15:10.608Z,100979.86
2018-08-23T15:17:38.881Z,100971.94
2018-08-23T15:20:08.909Z,100957.72
2018-08-23T15:22:37.181Z,100950.55
2018-08-23T15:25:06.441Z,100965.94
2018-08-23T15:27:35.169Z,100974.91
2018-08-23T15:30:05.054Z,100953.92
2018-08-23T15:32:33.341Z,100957.11
2018-08-23T15:35:01.649Z,100942.69
2018-08-23T15:37:30.109Z,100949.02
2018-08-23T15:39:58.405Z,100948.84
2018-08-23T15:42:26.730Z,100943.48
2018-08-23T15:44:55.230Z,100939.28
2018-08-23T15:47:23.625Z,100943.67
2018-08-23T15:49:51.912Z,100943.05
2018-08-23T15:52:20.773Z,100931.09
2018-08-23T15:54:49.049Z,100942.52
2018-08-23T15:57:17.325Z,100942.36
2018-08-23T15:59:45.812Z,100945.05
2018-08-23T16:02:14.175Z,100942.56
2018-08-23T16:04:42.461Z,100944.89
2018-08-23T16:07:11.161Z,100937.44
2018-08-23T16:09:39.485Z,100937.19
2018-08-23T16:12:07.785Z,100938.59
2018-08-23T16:14:36.145Z,100943.42
2018-08-23T16:17:09.925Z,100929.94
2018-08-23T16:19:44.599Z,100933.77
2018-08-23T16:22:12.917Z,100923.55
2018-08-23T16:24:41.203Z,100927.56
2018-08-23T16:27:09.534Z,100927.80
2018-08-23T16:29:38.965Z,100920.33
2018-08-23T16:32:07.373Z,100922.06
2018-08-23T16:34:35.573Z,100917.48
2018-08-23T16:37:03.870Z,100914.42
2018-08-23T16:39:32.162Z,100916.08
2018-08-23T16:42:00.570Z,100907.91
2018-08-23T16:44:28.842Z,100916.73
2018-08-23T16:46:57.145Z,100911.58
2018-08-23T16:49:25.574Z,100913.73
2018-08-23T16:51:54.057Z,100895.02
2018-08-23T16:54:22.477Z,100905.72
2018-08-23T16:56:50.770Z,100918.36
2018-08-23T16:59:19.141Z,100909.75
2018-08-23T17:01:47.466Z,100905.20
2018-08-23T17:04:15.977Z,100906.62
2018-08-23T17:06:44.169Z,100899.42
2018-08-23T17:09:16.429Z,100902.08
2018-08-23T17:11:44.691Z,100894.67
2018-08-23T17:14:14.543Z,100890.84
2018-08-23T17:16:48.040Z,100890.56
2018-08-23T17:19:16.573Z,100890.87
2018-08-23T17:21:44.845Z,100882.08
2018-08-23T17:24:13.139Z,100881.76
2018-08-23T17:26:41.417Z,100886.83
2018-08-23T17:29:09.709Z,100884.31
2018-08-23T17:31:38.830Z,100869.60
2018-08-23T17:34:07.147Z,100872.94
2018-08-23T17:36:35.407Z,100869.50
2018-08-23T17:39:03.897Z,100869.73
2018-08-23T17:41:32.165Z,100866.30
2018-08-23T17:44:00.488Z,100866.79
2018-08-23T17:46:28.749Z,100860.63
2018-08-23T17:48:57.033Z,100861.09
2018-08-23T17:51:25.339Z,100858.33
2018-08-23T17:53:53.597Z,100849.30
2018-08-23T17:56:21.909Z,100850.63
2018-08-23T17:58:50.185Z,100856.12
2018-08-23T18:01:18.524Z,100858.92
2018-08-23T18:03:46.791Z,100860.36
2018-08-23T18:06:15.141Z,100849.97
2018-08-23T18:08:43.457Z,100851.10
2018-08-23T18:11:11.752Z,100843.84
2018-08-23T18:13:40.041Z,100846.02
2018-08-23T18:16:13.753Z,100848.48
2018-08-23T18:18:42.021Z,100843.58
2018-08-23T18:21:10.333Z,100844.92
2018-08-23T18:23:38.653Z,100855.74
2018-08-23T18:26:06.938Z,100854.08
2018-08-23T18:28:35.254Z,100852.25
2018-08-23T18:31:03.599Z,100851.34
2018-08-23T18:33:31.878Z,100856.03
2018-08-23T18:36:00.169Z,100848.11
2018-08-23T18:38:28.455Z,100846.89
2018-08-23T18:40:57.349Z,100848.83
2018-08-23T18:43:25.621Z,100851.09
2018-08-23T18:45:54.005Z,100853.45
2018-08-23T18:48:23.332Z,100860.41
2018-08-23T18:50:51.601Z,100863.78
2018-08-23T18:53:20.357Z,100859.37
2018-08-23T18:55:48.638Z,100857.30
2018-08-23T18:58:17.051Z,100854.41
2018-08-23T19:00:46.425Z,100855.64
2018-08-23T19:03:14.733Z,100859.92
2018-08-23T19:05:43.090Z,100850.66
2018-08-23T19:08:11.381Z,100853.71
2018-08-23T19:10:40.112Z,100853.59
2018-08-23T19:13:08.470Z,100852.48
2018-08-23T19:15:42.409Z,100854.61
2018-08-23T19:18:10.841Z,100845.89
2018-08-23T19:20:39.110Z,100845.77
2018-08-23T19:23:07.429Z,100849.86
2018-08-23T19:25:35.711Z,100850.89
2018-08-23T19:28:04.037Z,100849.32
2018-08-23T19:30:32.340Z,100847.98
2018-08-23T19:33:00.645Z,100843.54
2018-08-23T19:35:28.909Z,100840.74
2018-08-23T19:37:58.370Z,100843.92
2018-08-23T19:40:29.721Z,100842.85
2018-08-23T19:43:00.531Z,100845.42
2018-08-23T19:45:33.987Z,100838.14
2018-08-23T19:48:02.585Z,100840.87
2018-08-23T19:50:30.870Z,100834.81
2018-08-23T19:52:59.137Z,100840.97
2018-08-23T19:55:27.531Z,100835.63
2018-08-23T19:57:55.797Z,100837.48
2018-08-23T20:00:24.309Z,100837.99
2018-08-23T20:02:52.603Z,100830.66
2018-08-23T20:05:21.023Z,100835.06
2018-08-23T20:07:49.612Z,100827.49
2018-08-23T20:10:18.542Z,100824.28
2018-08-23T20:12:47.002Z,100820.66
2018-08-23T20:15:19.710Z,100821.10
2018-08-23T20:17:48.088Z,100814.32
2018-08-23T20:20:16.342Z,100817.96
2018-08-23T20:22:44.654Z,100817.95
2018-08-23T20:25:12.959Z,100817.34
2018-08-23T20:27:41.249Z,100810.68
2018-08-23T20:30:09.562Z,100808.11
2018-08-23T20:32:37.870Z,100804.80
2018-08-23T20:35:06.262Z,100802.84
2018-08-23T20:37:34.534Z,100795.94
2018-08-23T20:40:03.099Z,100796.28
2018-08-23T20:42:31.462Z,100794.02
2018-08-23T20:44:59.764Z,100798.64
2018-08-23T20:47:28.054Z,100789.92
2018-08-23T20:49:56.398Z,100785.16
2018-08-23T20:52:24.686Z,100796.13
2018-08-23T20:54:52.965Z,100787.31
2018-08-23T20:57:21.269Z,100779.02
2018-08-23T20:59:49.670Z,100787.85
2018-08-23T21:02:17.962Z,100778.91
2018-08-23T21:04:46.296Z,100772.82
2018-08-23T21:07:14.593Z,100774.60
2018-08-23T21:09:42.903Z,100768.80
2018-08-23T21:12:11.189Z,100768.66
2018-08-23T21:14:39.520Z,100764.04
2018-08-23T21:17:07.857Z,100766.25
2018-08-23T21:19:36.147Z,100770.04
2018-08-23T21:22:05.738Z,100773.20
2018-08-23T21:24:34.077Z,100774.67
2018-08-23T21:27:02.401Z,100767.20
2018-08-23T21:29:30.701Z,100780.75
2018-08-23T21:31:59.053Z,100775.69
2018-08-23T21:34:27.406Z,100774.80
2018-08-23T21:36:55.704Z,100767.05
2018-08-23T21:39:24.321Z,100766.43
2018-08-23T21:41:52.630Z,100761.62
2018-08-23T21:44:20.964Z,100760.17
2018-08-23T21:46:49.457Z,100758.09
2018-08-23T21:49:17.804Z,100748.91
2018-08-23T21:51:46.151Z,100752.44
2018-08-23T21:54:14.491Z,100746.50
2018-08-23T21:56:42.993Z,100746.30
2018-08-23T21:59:11.333Z,100740.80
2018-08-23T22:01:39.648Z,100738.96
2018-08-23T22:04:08.014Z,100736.36
2018-08-23T22:06:36.403Z,100733.08
2018-08-23T22:09:07.761Z,100729.02
2018-08-23T22:11:36.104Z,100725.99
2018-08-23T22:14:05.502Z,100729.23
2018-08-23T22:16:33.802Z,100729.28
2018-08-23T22:19:02.201Z,100726.43
2018-08-23T22:21:30.602Z,100727.52
2018-08-23T22:23:58.951Z,100725.17
2018-08-23T22:26:27.416Z,100724.09
2018-08-23T22:28:55.702Z,100728.31
2018-08-23T22:31:24.040Z,100730.73
2018-08-23T22:33:52.349Z,100725.33
2018-08-23T22:36:21.913Z,100727.38
2018-08-23T22:38:51.213Z,100725.27
2018-08-23T22:41:19.538Z,100739.27
2018-08-23T22:43:47.923Z,100737.63
2018-08-23T22:46:17.376Z,100731.72
2018-08-23T22:48:45.694Z,100726.28
2018-08-23T22:51:13.983Z,100731.14
2018-08-23T22:53:42.282Z,100728.24
2018-08-23T22:56:10.590Z,100727.97
2018-08-23T22:58:39.037Z,100722.44
2018-08-23T23:01:07.405Z,100724.91
2018-08-23T23:03:41.109Z,100725.35
2018-08-23T23:06:09.417Z,100724.84
2018-08-23T23:08:37.703Z,100724.25
2018-08-23T23:11:06.397Z,100722.15
2018-08-23T23:13:34.681Z,100713.94
2018-08-23T23:16:03.116Z,100721.05
2018-08-23T23:18:31.481Z,100712.10
2018-08-23T23:20:59.797Z,100706.91
2018-08-23T23:23:28.072Z,100712.38
2018-08-23T23:25:56.355Z,100702.56
2018-08-23T23:28:24.677Z,100702.25
2018-08-23T23:30:52.938Z,100692.44
2018-08-23T23:33:21.197Z,100687.87
2018-08-23T23:35:49.652Z,100680.03
2018-08-23T23:38:17.930Z,100682.77
2018-08-23T23:40:46.778Z,100678.39
2018-08-23T23:43:16.118Z,100674.72
2018-08-23T23:45:44.394Z,100673.97
2018-08-23T23:48:12.672Z,100663.95
2018-08-23T23:50:40.953Z,100660.54
2018-08-23T23:53:09.293Z,100669.09
2018-08-23T23:55:37.582Z,100659.97
2018-08-23T23:58:06.077Z,100662.12
